Time;durP1;ratioP1;P1;durP2;ratioP2;P2;SDS_P1;SDS_P2;PMS_P1;PMS_P2;Temp;Humidity;BMP_temperature;BMP_pressure;BME280_temperature;BME280_humidity;BME280_pressure;Samples;Min_cycle;Max_cycle;Signal;HPM_P1;HPM_P2
2023/12/14 00:01:27;;;;;;;4.25;2.05;;;;;;;;;;5077129;28;20027;-49
2023/12/14 00:03:52;;;;;;;2.05;0.80;;;;;;;;;;5073965;28;20092;-46
2023/12/14 00:06:17;;;;;;;3.38;1.20;;;;;;;;;;5081302;28;20131;-45
2023/12/14 00:08:43;;;;;;;1.67;1.08;;;;;;;;;;5077645;28;20033;-46
2023/12/14 00:11:10;;;;;;;1.85;0.93;;;;;;;;;;5087793;28;20039;-46
2023/12/14 00:13:36;;;;;;;1.45;0.63;;;;;;;;;;5073068;28;20119;-48
2023/12/14 00:16:02;;;;;;;2.35;1.15;;;;;;;;;;5075387;28;20063;-47
2023/12/14 00:18:28;;;;;;;2.15;0.82;;;;;;;;;;5076786;28;20048;-44
2023/12/14 00:20:54;;;;;;;3.20;0.90;;;;;;;;;;5075892;28;20115;-46
2023/12/14 00:23:20;;;;;;;1.27;0.60;;;;;;;;;;5074582;28;20510;-46
2023/12/14 00:25:46;;;;;;;1.38;0.85;;;;;;;;;;5077197;28;20032;-49
2023/12/14 00:28:11;;;;;;;2.20;0.98;;;;;;;;;;5074287;28;20041;-49
2023/12/14 00:30:36;;;;;;;2.30;0.73;;;;;;;;;;5075216;28;20119;-45
2023/12/14 00:33:02;;;;;;;3.03;1.25;;;;;;;;;;5075055;28;20038;-47
2023/12/14 00:35:27;;;;;;;2.35;0.63;;;;;;;;;;5076770;28;20048;-49
2023/12/14 00:37:52;;;;;;;3.47;0.75;;;;;;;;;;5075702;28;20481;-44
2023/12/14 00:40:18;;;;;;;1.35;0.90;;;;;;;;;;5075470;28;20414;-46
2023/12/14 00:42:43;;;;;;;2.38;0.93;;;;;;;;;;5074501;28;20052;-45
2023/12/14 00:45:09;;;;;;;1.95;0.63;;;;;;;;;;5075797;28;20078;-47
2023/12/14 00:47:35;;;;;;;1.63;1.05;;;;;;;;;;5074832;28;20087;-45
2023/12/14 00:50:01;;;;;;;2.03;0.77;;;;;;;;;;5082189;28;20207;-47
2023/12/14 00:52:26;;;;;;;3.33;0.80;;;;;;;;;;5075542;28;20049;-45
2023/12/14 00:54:52;;;;;;;3.17;0.98;;;;;;;;;;5074589;28;20092;-47
2023/12/14 00:57:17;;;;;;;2.30;1.20;;;;;;;;;;5081581;28;20039;-45
2023/12/14 00:59:42;;;;;;;1.15;1.00;;;;;;;;;;5076813;28;20047;-45
2023/12/14 01:02:08;;;;;;;1.83;0.90;;;;;;;;;;5075602;28;20028;-48
2023/12/14 01:04:33;;;;;;;1.73;1.10;;;;;;;;;;5076460;28;20063;-45
2023/12/14 01:06:58;;;;;;;1.00;0.50;;;;;;;;;;5082105;28;20021;-47
2023/12/14 01:09:24;;;;;;;2.08;0.90;;;;;;;;;;5090132;28;20056;-50
2023/12/14 01:11:49;;;;;;;1.65;1.00;;;;;;;;;;5073452;28;20043;-47
2023/12/14 01:14:15;;;;;;;1.73;0.63;;;;;;;;;;5075457;28;20134;-45
2023/12/14 01:16:40;;;;;;;2.60;1.30;;;;;;;;;;5074139;28;20031;-48
2023/12/14 01:19:06;;;;;;;2.80;0.88;;;;;;;;;;5073632;28;20127;-47
2023/12/14 01:21:32;;;;;;;3.95;2.00;;;;;;;;;;5070629;28;20043;-49
2023/12/14 01:23:57;;;;;;;1.85;0.77;;;;;;;;;;5073999;28;20036;-48
2023/12/14 01:26:23;;;;;;;2.17;1.30;;;;;;;;;;5075971;28;20027;-48
2023/12/14 01:28:48;;;;;;;2.25;1.15;;;;;;;;;;5090646;28;20032;-47
2023/12/14 01:31:14;;;;;;;3.40;1.02;;;;;;;;;;5074541;28;20417;-46
2023/12/14 01:33:39;;;;;;;1.65;0.88;;;;;;;;;;5075172;28;20043;-46
2023/12/14 01:36:05;;;;;;;1.95;1.10;;;;;;;;;;5073488;28;20107;-45
2023/12/14 01:38:30;;;;;;;1.33;0.43;;;;;;;;;;5074229;28;20044;-45
2023/12/14 01:40:56;;;;;;;0.80;0.30;;;;;;;;;;5071860;28;20033;-46
2023/12/14 01:43:23;;;;;;;0.80;0.30;;;;;;;;;;5075010;28;20502;-46
2023/12/14 01:45:48;;;;;;;2.53;0.40;;;;;;;;;;5081258;28;20385;-49
2023/12/14 01:48:14;;;;;;;1.77;0.40;;;;;;;;;;5080365;28;20115;-50
2023/12/14 01:50:39;;;;;;;3.25;0.98;;;;;;;;;;5077690;28;20024;-50
2023/12/14 01:53:04;;;;;;;5.57;4.35;;;;;;;;;;5076425;28;20096;-47
2023/12/14 01:55:30;;;;;;;8.18;4.30;;;;;;;;;;5072853;28;20032;-48
2023/12/14 01:57:55;;;;;;;7.70;3.10;;;;;;;;;;5074825;28;20074;-47
2023/12/14 02:00:28;;;;;;;4.47;2.33;;;;;;;;;;5079448;28;20496;-48
2023/12/14 02:02:53;;;;;;;8.23;1.65;;;;;;;;;;5075553;28;20039;-47
2023/12/14 02:05:19;;;;;;;2.33;1.08;;;;;;;;;;5063700;28;20037;-47
2023/12/14 02:07:44;;;;;;;4.22;1.70;;;;;;;;;;5072773;28;20036;-45
2023/12/14 02:10:09;;;;;;;3.03;1.30;;;;;;;;;;5074688;28;20024;-46
2023/12/14 02:12:35;;;;;;;3.85;1.55;;;;;;;;;;5072549;28;20031;-48
2023/12/14 02:15:00;;;;;;;3.78;1.88;;;;;;;;;;5079237;28;20124;-46
2023/12/14 02:17:26;;;;;;;2.42;1.33;;;;;;;;;;5080317;28;20461;-47
2023/12/14 02:19:51;;;;;;;2.97;0.80;;;;;;;;;;5073541;28;20033;-47
2023/12/14 02:22:17;;;;;;;1.63;0.73;;;;;;;;;;5079240;28;20359;-46
2023/12/14 02:24:42;;;;;;;1.67;0.70;;;;;;;;;;5071213;28;20032;-45
2023/12/14 02:27:08;;;;;;;1.80;0.50;;;;;;;;;;5074208;28;20028;-45
2023/12/14 02:29:33;;;;;;;2.00;0.47;;;;;;;;;;5072078;28;20041;-48
2023/12/14 02:31:59;;;;;;;1.23;0.38;;;;;;;;;;5079333;28;20032;-44
2023/12/14 02:34:27;;;;;;;1.80;1.10;;;;;;;;;;5084510;28;20040;-48
2023/12/14 02:36:53;;;;;;;1.58;0.93;;;;;;;;;;5075236;28;20024;-44
2023/12/14 02:39:18;;;;;;;1.50;0.70;;;;;;;;;;5072874;28;20036;-47
2023/12/14 02:41:44;;;;;;;1.42;0.85;;;;;;;;;;5076324;28;20048;-46
2023/12/14 02:44:09;;;;;;;1.13;0.50;;;;;;;;;;5073355;28;20032;-46
2023/12/14 02:46:34;;;;;;;2.50;1.15;;;;;;;;;;5074281;28;20111;-46
2023/12/14 02:49:00;;;;;;;1.45;0.65;;;;;;;;;;5076016;28;20028;-49
2023/12/14 02:51:25;;;;;;;1.05;0.65;;;;;;;;;;5078053;28;20517;-45
2023/12/14 02:53:51;;;;;;;1.10;0.32;;;;;;;;;;5076072;28;20043;-45
2023/12/14 02:56:16;;;;;;;1.83;0.47;;;;;;;;;;5078140;28;20031;-46
2023/12/14 02:58:41;;;;;;;0.93;0.20;;;;;;;;;;5076161;28;20486;-45
2023/12/14 03:01:07;;;;;;;1.27;0.77;;;;;;;;;;5079125;28;20518;-45
2023/12/14 03:03:32;;;;;;;1.02;0.55;;;;;;;;;;5076576;28;20060;-46
2023/12/14 03:05:58;;;;;;;1.48;0.57;;;;;;;;;;5075937;28;20051;-44
2023/12/14 03:08:23;;;;;;;1.10;0.77;;;;;;;;;;5077653;28;20059;-46
2023/12/14 03:10:48;;;;;;;1.00;0.40;;;;;;;;;;5078480;28;20123;-48
2023/12/14 03:13:14;;;;;;;1.30;0.28;;;;;;;;;;5075187;28;20036;-46
2023/12/14 03:15:42;;;;;;;2.08;0.47;;;;;;;;;;5077150;28;20036;-48
2023/12/14 03:18:07;;;;;;;1.42;1.10;;;;;;;;;;5073979;28;20115;-51
2023/12/14 03:20:33;;;;;;;2.47;0.75;;;;;;;;;;5077537;28;20044;-44
2023/12/14 03:22:58;;;;;;;2.33;0.30;;;;;;;;;;5075389;28;20102;-50
2023/12/14 03:25:24;;;;;;;1.25;0.38;;;;;;;;;;5080403;28;20036;-47
2023/12/14 03:27:49;;;;;;;2.53;0.88;;;;;;;;;;5083557;28;20682;-44
2023/12/14 03:30:14;;;;;;;1.63;0.85;;;;;;;;;;5083985;28;20055;-48
2023/12/14 03:32:40;;;;;;;1.25;0.82;;;;;;;;;;5079484;28;20058;-50
2023/12/14 03:35:05;;;;;;;3.55;0.73;;;;;;;;;;5076140;28;20032;-45
2023/12/14 03:37:31;;;;;;;1.77;0.32;;;;;;;;;;5075770;28;20032;-44
2023/12/14 03:39:56;;;;;;;2.95;0.63;;;;;;;;;;5076491;28;20043;-46
2023/12/14 03:42:22;;;;;;;1.15;0.85;;;;;;;;;;5078026;28;20048;-47
2023/12/14 03:44:48;;;;;;;0.77;0.45;;;;;;;;;;5076567;28;20041;-45
2023/12/14 03:47:13;;;;;;;1.95;0.95;;;;;;;;;;5076441;28;20067;-47
2023/12/14 03:49:38;;;;;;;2.67;0.70;;;;;;;;;;5077297;28;20040;-47
2023/12/14 03:52:04;;;;;;;0.60;0.38;;;;;;;;;;5077251;28;20043;-47
2023/12/14 03:54:30;;;;;;;1.23;0.73;;;;;;;;;;5077198;28;20055;-47
2023/12/14 03:56:55;;;;;;;1.17;0.22;;;;;;;;;;5075405;28;20033;-47
2023/12/14 03:59:20;;;;;;;1.20;0.50;;;;;;;;;;5075278;28;20051;-47
2023/12/14 04:09:03;;;;;;;2.67;0.45;;;;;;;;;;5072623;28;20502;-46
2023/12/14 04:11:29;;;;;;;0.80;0.52;;;;;;;;;;5073806;28;20103;-46
2023/12/14 04:13:55;;;;;;;1.70;0.25;;;;;;;;;;5075713;28;20021;-45
2023/12/14 04:16:21;;;;;;;0.63;0.28;;;;;;;;;;5076479;28;20086;-45
2023/12/14 04:18:46;;;;;;;0.98;0.30;;;;;;;;;;5074448;28;20037;-47
2023/12/14 04:21:11;;;;;;;1.10;0.30;;;;;;;;;;5078470;28;20028;-45
2023/12/14 04:23:37;;;;;;;1.05;0.55;;;;;;;;;;5076001;28;20040;-44
2023/12/14 04:26:02;;;;;;;0.65;0.63;;;;;;;;;;5075654;28;20027;-47
2023/12/14 04:28:28;;;;;;;1.00;0.70;;;;;;;;;;5078323;28;20058;-45
2023/12/14 04:30:53;;;;;;;1.20;0.73;;;;;;;;;;5089771;28;20494;-45
2023/12/14 04:33:18;;;;;;;1.38;0.68;;;;;;;;;;5076604;28;20544;-48
2023/12/14 04:35:44;;;;;;;0.60;0.20;;;;;;;;;;5073425;28;20059;-45
2023/12/14 04:38:09;;;;;;;0.55;0.32;;;;;;;;;;5056200;28;20041;-44
2023/12/14 04:40:35;;;;;;;1.23;0.50;;;;;;;;;;5076775;28;20043;-45
2023/12/14 04:43:00;;;;;;;2.17;0.88;;;;;;;;;;5076771;28;20483;-45
2023/12/14 04:45:25;;;;;;;2.20;1.10;;;;;;;;;;5072253;28;20032;-45
2023/12/14 04:47:51;;;;;;;0.90;0.40;;;;;;;;;;5074258;28;20048;-45
2023/12/14 04:50:16;;;;;;;0.75;0.43;;;;;;;;;;5074612;28;20028;-47
2023/12/14 04:52:45;;;;;;;0.73;0.73;;;;;;;;;;5075149;28;20127;-46
2023/12/14 04:55:10;;;;;;;0.93;0.63;;;;;;;;;;5075619;28;20060;-47
2023/12/14 04:57:36;;;;;;;0.95;0.40;;;;;;;;;;5076813;28;20059;-44
2023/12/14 05:00:02;;;;;;;1.33;0.57;;;;;;;;;;5074522;28;20050;-46
2023/12/14 05:02:27;;;;;;;0.50;0.43;;;;;;;;;;5084687;28;20036;-44
2023/12/14 05:04:53;;;;;;;0.82;0.55;;;;;;;;;;5073572;28;20036;-44
2023/12/14 05:07:18;;;;;;;0.63;0.47;;;;;;;;;;5071282;28;20462;-44
2023/12/14 05:09:44;;;;;;;1.10;0.68;;;;;;;;;;5080689;28;20118;-44
2023/12/14 05:12:09;;;;;;;1.85;0.40;;;;;;;;;;5076188;28;20028;-44
2023/12/14 05:14:35;;;;;;;0.80;0.20;;;;;;;;;;5071853;28;20462;-44
2023/12/14 05:17:00;;;;;;;1.10;0.50;;;;;;;;;;5076358;28;20024;-48
2023/12/14 05:19:25;;;;;;;1.13;0.95;;;;;;;;;;5073978;28;20044;-49
2023/12/14 05:21:51;;;;;;;1.15;0.60;;;;;;;;;;5076323;28;20027;-46
2023/12/14 05:24:16;;;;;;;0.90;0.35;;;;;;;;;;5073179;28;20036;-45
2023/12/14 05:26:41;;;;;;;1.00;0.40;;;;;;;;;;5075432;28;20039;-46
2023/12/14 05:29:07;;;;;;;0.70;0.30;;;;;;;;;;5074523;28;20051;-48
2023/12/14 05:31:32;;;;;;;1.33;1.00;;;;;;;;;;5075840;28;20028;-48
2023/12/14 05:33:58;;;;;;;0.82;0.10;;;;;;;;;;5073344;28;20052;-46
2023/12/14 05:36:23;;;;;;;0.88;0.38;;;;;;;;;;5076056;28;20032;-48
2023/12/14 05:38:49;;;;;;;2.80;0.50;;;;;;;;;;5075326;28;20100;-46
2023/12/14 05:41:15;;;;;;;1.00;0.32;;;;;;;;;;5073458;28;20036;-48
2023/12/14 05:43:40;;;;;;;0.70;0.30;;;;;;;;;;5074896;28;20041;-46
2023/12/14 05:46:06;;;;;;;1.42;0.65;;;;;;;;;;5074274;28;20035;-49
2023/12/14 05:48:31;;;;;;;1.13;0.40;;;;;;;;;;5068912;28;20071;-51
2023/12/14 05:50:57;;;;;;;1.13;0.40;;;;;;;;;;5075353;28;20019;-46
2023/12/14 05:53:22;;;;;;;2.33;0.45;;;;;;;;;;5075175;28;20044;-49
2023/12/14 05:55:48;;;;;;;0.70;0.52;;;;;;;;;;5090669;28;20044;-45
2023/12/14 05:58:13;;;;;;;1.52;0.47;;;;;;;;;;5071237;28;20067;-49
2023/12/14 06:00:39;;;;;;;1.38;0.55;;;;;;;;;;5076619;28;20031;-46
2023/12/14 06:03:05;;;;;;;1.42;0.60;;;;;;;;;;5074669;28;20041;-46
2023/12/14 06:05:30;;;;;;;0.93;0.35;;;;;;;;;;5073262;28;20024;-47
2023/12/14 06:07:56;;;;;;;1.10;0.57;;;;;;;;;;5074204;28;20033;-45
2023/12/14 06:10:21;;;;;;;0.80;0.47;;;;;;;;;;5071089;28;20028;-45
2023/12/14 06:12:47;;;;;;;1.85;0.85;;;;;;;;;;5071750;28;20107;-49
2023/12/14 06:15:13;;;;;;;0.55;0.50;;;;;;;;;;5076158;28;20091;-47
2023/12/14 06:17:39;;;;;;;1.90;0.82;;;;;;;;;;5069891;28;20107;-42
2023/12/14 06:20:06;;;;;;;1.10;0.55;;;;;;;;;;5071471;28;20081;-48
2023/12/14 06:22:32;;;;;;;1.55;0.68;;;;;;;;;;5080302;28;20042;-44
2023/12/14 06:24:57;;;;;;;0.68;0.52;;;;;;;;;;5074977;28;20032;-45
2023/12/14 06:27:26;;;;;;;1.17;0.60;;;;;;;;;;5079817;28;20056;-47
2023/12/14 06:29:52;;;;;;;0.70;0.20;;;;;;;;;;5084312;28;20039;-46
2023/12/14 06:32:17;;;;;;;0.73;0.43;;;;;;;;;;5069467;28;20025;-45
2023/12/14 06:34:42;;;;;;;0.82;0.70;;;;;;;;;;5071348;28;20170;-47
2023/12/14 06:37:08;;;;;;;2.05;0.60;;;;;;;;;;5066830;28;20054;-46
2023/12/14 06:39:33;;;;;;;1.10;0.85;;;;;;;;;;5081115;28;20043;-48
2023/12/14 06:41:59;;;;;;;1.52;0.82;;;;;;;;;;5074021;28;20040;-44
2023/12/14 06:44:26;;;;;;;2.92;0.63;;;;;;;;;;5066598;28;20037;-49
2023/12/14 06:46:51;;;;;;;1.30;0.20;;;;;;;;;;5071393;28;20451;-48
2023/12/14 06:49:17;;;;;;;1.48;0.57;;;;;;;;;;5072478;28;20071;-45
2023/12/14 06:51:42;;;;;;;1.35;0.85;;;;;;;;;;5066136;28;20052;-47
2023/12/14 06:54:08;;;;;;;1.13;0.30;;;;;;;;;;5091783;28;20173;-48
2023/12/14 06:56:36;;;;;;;1.65;0.35;;;;;;;;;;5074189;28;20031;-45
2023/12/14 06:59:01;;;;;;;0.60;0.32;;;;;;;;;;5073956;28;20063;-45
2023/12/14 07:01:27;;;;;;;1.15;1.02;;;;;;;;;;5070795;28;20025;-45
2023/12/14 07:03:52;;;;;;;1.17;0.57;;;;;;;;;;5078203;28;20078;-45
2023/12/14 07:06:18;;;;;;;0.70;0.68;;;;;;;;;;5077140;28;20017;-46
2023/12/14 07:08:45;;;;;;;1.15;1.05;;;;;;;;;;5078420;28;20039;-48
2023/12/14 07:11:11;;;;;;;1.35;0.80;;;;;;;;;;5074461;28;20036;-48
2023/12/14 07:13:37;;;;;;;1.55;1.23;;;;;;;;;;5069472;28;20051;-46
2023/12/14 07:16:10;;;;;;;1.17;0.63;;;;;;;;;;5075740;28;20028;-45
2023/12/14 07:18:36;;;;;;;1.00;0.43;;;;;;;;;;5065372;28;20049;-45
2023/12/14 07:21:02;;;;;;;0.88;0.63;;;;;;;;;;5072530;28;20111;-48
2023/12/14 07:23:28;;;;;;;1.00;0.75;;;;;;;;;;5074619;28;20033;-48
2023/12/14 07:25:54;;;;;;;2.30;0.85;;;;;;;;;;5085619;28;20040;-47
2023/12/14 07:28:20;;;;;;;1.40;0.60;;;;;;;;;;5078354;28;20044;-45
2023/12/14 07:30:46;;;;;;;1.35;1.05;;;;;;;;;;5077251;28;20146;-47
2023/12/14 07:33:12;;;;;;;1.20;0.80;;;;;;;;;;5074922;28;20401;-48
2023/12/14 07:35:37;;;;;;;1.02;0.95;;;;;;;;;;5073284;28;20166;-45
2023/12/14 07:38:03;;;;;;;1.40;0.63;;;;;;;;;;5068769;28;20033;-47
2023/12/14 07:40:28;;;;;;;1.08;0.35;;;;;;;;;;5069618;28;21454;-48
2023/12/14 07:42:54;;;;;;;1.95;0.63;;;;;;;;;;5073517;28;20554;-46
2023/12/14 07:45:19;;;;;;;1.25;0.50;;;;;;;;;;5073467;28;20040;-45
2023/12/14 07:47:46;;;;;;;2.30;0.20;;;;;;;;;;5076266;28;20453;-48
2023/12/14 07:50:11;;;;;;;0.90;0.32;;;;;;;;;;5092238;28;20031;-50
2023/12/14 07:52:37;;;;;;;1.25;0.50;;;;;;;;;;5075145;28;20048;-48
2023/12/14 07:55:03;;;;;;;1.67;0.50;;;;;;;;;;5077203;28;20111;-46
2023/12/14 07:57:28;;;;;;;0.80;0.60;;;;;;;;;;5075293;28;20029;-49
2023/12/14 07:59:54;;;;;;;1.00;0.43;;;;;;;;;;5077272;28;20089;-50
2023/12/14 08:02:19;;;;;;;1.17;0.52;;;;;;;;;;5075341;28;20025;-46
2023/12/14 08:04:44;;;;;;;2.42;0.63;;;;;;;;;;5074736;28;20122;-47
2023/12/14 08:07:10;;;;;;;0.90;0.38;;;;;;;;;;5074151;28;20028;-45
2023/12/14 08:09:35;;;;;;;1.10;0.90;;;;;;;;;;5088836;28;20037;-45
2023/12/14 08:12:00;;;;;;;1.90;0.73;;;;;;;;;;5074010;28;20032;-49
2023/12/14 08:14:26;;;;;;;1.75;0.68;;;;;;;;;;5078395;28;20043;-45
2023/12/14 08:16:51;;;;;;;1.48;0.93;;;;;;;;;;5071327;28;20024;-47
2023/12/14 08:19:17;;;;;;;1.58;1.13;;;;;;;;;;5073950;28;20041;-48
2023/12/14 08:21:42;;;;;;;2.45;0.90;;;;;;;;;;5074312;28;20039;-47
2023/12/14 08:24:08;;;;;;;1.23;0.98;;;;;;;;;;5075386;28;20132;-46
2023/12/14 08:26:33;;;;;;;1.27;0.98;;;;;;;;;;5074610;28;20386;-47
2023/12/14 08:28:58;;;;;;;1.80;0.77;;;;;;;;;;5073949;28;20104;-49
2023/12/14 08:31:25;;;;;;;0.88;0.43;;;;;;;;;;5074500;28;20496;-46
2023/12/14 08:33:52;;;;;;;2.20;0.82;;;;;;;;;;5074286;28;20051;-45
2023/12/14 08:36:17;;;;;;;0.95;0.57;;;;;;;;;;5071984;28;20025;-45
2023/12/14 08:38:43;;;;;;;1.25;0.35;;;;;;;;;;5074423;28;20035;-45
2023/12/14 08:41:13;;;;;;;0.88;0.50;;;;;;;;;;5072262;28;20037;-44
2023/12/14 08:43:38;;;;;;;0.88;0.88;;;;;;;;;;5074716;28;20071;-45
2023/12/14 08:46:04;;;;;;;1.50;0.60;;;;;;;;;;5072182;28;20524;-46
2023/12/14 08:48:29;;;;;;;2.25;0.65;;;;;;;;;;5073691;28;20036;-46
2023/12/14 08:50:55;;;;;;;3.78;0.43;;;;;;;;;;5074308;28;20024;-46
2023/12/14 08:53:20;;;;;;;0.80;0.63;;;;;;;;;;5076134;28;20040;-46
2023/12/14 08:55:46;;;;;;;1.23;0.68;;;;;;;;;;5074461;28;20043;-45
2023/12/14 08:58:11;;;;;;;2.03;0.43;;;;;;;;;;5074026;28;20087;-46
2023/12/14 09:00:38;;;;;;;1.60;0.93;;;;;;;;;;5075339;28;20099;-46
2023/12/14 09:03:03;;;;;;;1.42;0.65;;;;;;;;;;5072208;28;20033;-46
2023/12/14 09:05:29;;;;;;;1.52;0.57;;;;;;;;;;5074891;28;20033;-47
2023/12/14 09:07:56;;;;;;;1.08;0.30;;;;;;;;;;5071723;28;20474;-45
2023/12/14 09:10:22;;;;;;;1.73;0.50;;;;;;;;;;5073968;28;20029;-44
2023/12/14 09:12:48;;;;;;;1.02;0.93;;;;;;;;;;5074455;28;20036;-46
2023/12/14 09:15:15;;;;;;;1.85;1.15;;;;;;;;;;5075618;28;20043;-48
2023/12/14 09:17:42;;;;;;;3.10;1.30;;;;;;;;;;5073862;28;20020;-46
2023/12/14 09:20:08;;;;;;;1.73;0.68;;;;;;;;;;5073806;28;20111;-45
2023/12/14 09:22:33;;;;;;;1.02;0.45;;;;;;;;;;5075828;28;20035;-44
2023/12/14 09:24:59;;;;;;;0.68;0.45;;;;;;;;;;5072813;28;20032;-46
2023/12/14 09:27:24;;;;;;;0.60;0.52;;;;;;;;;;5073195;28;20020;-44
2023/12/14 09:29:49;;;;;;;2.15;0.35;;;;;;;;;;5074176;28;20036;-46
2023/12/14 09:32:17;;;;;;;0.40;0.30;;;;;;;;;;5055195;28;20054;-44
2023/12/14 09:34:43;;;;;;;0.40;0.35;;;;;;;;;;5073736;28;20449;-44
2023/12/14 09:37:08;;;;;;;2.78;0.88;;;;;;;;;;5072008;28;20439;-45
2023/12/14 09:39:34;;;;;;;1.85;1.20;;;;;;;;;;5068339;28;20131;-45
2023/12/14 09:42:07;;;;;;;1.52;1.20;;;;;;;;;;5068116;28;20040;-46
2023/12/14 09:44:33;;;;;;;1.25;0.80;;;;;;;;;;5071005;28;20036;-46
2023/12/14 09:47:02;;;;;;;1.40;0.63;;;;;;;;;;5069429;28;20043;-45
2023/12/14 09:49:29;;;;;;;;;;;;;;;;;;5072712;28;20040;-45
2023/12/14 09:51:57;;;;;;;2.00;0.70;;;;;;;;;;5069294;28;20011;-45
2023/12/14 09:54:24;;;;;;;1.00;0.38;;;;;;;;;;5086298;28;20036;-45
2023/12/14 09:56:50;;;;;;;1.85;0.80;;;;;;;;;;5072839;28;20390;-47
2023/12/14 09:59:16;;;;;;;0.52;0.40;;;;;;;;;;5075085;28;20048;-46
2023/12/14 10:01:41;;;;;;;2.08;0.68;;;;;;;;;;5089014;28;20505;-45
2023/12/14 10:04:14;;;;;;;2.40;2.30;;;;;;;;;;5066784;28;20044;-45
2023/12/14 10:06:42;;;;;;;1.95;0.73;;;;;;;;;;5072351;28;20025;-46
2023/12/14 10:09:09;;;;;;;1.00;0.68;;;;;;;;;;5069597;28;20041;-46
2023/12/14 10:11:38;;;;;;;0.40;0.30;;;;;;;;;;5069223;28;20025;-45
2023/12/14 10:14:21;;;;;;;0.57;0.57;;;;;;;;;;5072298;28;20047;-45
2023/12/14 10:16:47;;;;;;;0.80;0.47;;;;;;;;;;5054679;28;20024;-45
2023/12/14 10:19:13;;;;;;;1.60;0.30;;;;;;;;;;5072454;28;20048;-44
2023/12/14 10:21:38;;;;;;;0.60;0.52;;;;;;;;;;5073363;28;20136;-45
2023/12/14 10:24:05;;;;;;;0.38;0.38;;;;;;;;;;5071051;28;20738;-44
2023/12/14 10:26:31;;;;;;;0.63;0.63;;;;;;;;;;5064589;28;20028;-45
2023/12/14 10:28:56;;;;;;;2.30;0.88;;;;;;;;;;5075293;28;20037;-46
2023/12/14 10:31:24;;;;;;;0.52;0.40;;;;;;;;;;5072526;28;20024;-47
2023/12/14 10:33:50;;;;;;;0.70;0.28;;;;;;;;;;5073674;28;20093;-45
2023/12/14 10:36:19;;;;;;;0.93;0.35;;;;;;;;;;5069550;28;20020;-46
2023/12/14 10:38:48;;;;;;;2.92;0.63;;;;;;;;;;5071098;28;20040;-49
2023/12/14 10:41:13;;;;;;;1.33;0.32;;;;;;;;;;5073502;28;20037;-44
2023/12/14 10:43:41;;;;;;;0.70;0.35;;;;;;;;;;5071340;28;20047;-47
2023/12/14 10:46:09;;;;;;;0.77;0.40;;;;;;;;;;5071030;28;20028;-45
2023/12/14 10:48:37;;;;;;;1.67;0.45;;;;;;;;;;5073075;28;20033;-49
2023/12/14 10:51:05;;;;;;;0.47;0.32;;;;;;;;;;5074675;28;20032;-47
2023/12/14 10:53:32;;;;;;;1.15;0.15;;;;;;;;;;5075208;28;20045;-45
2023/12/14 10:56:00;;;;;;;0.43;0.25;;;;;;;;;;5072492;28;20576;-48
2023/12/14 10:58:25;;;;;;;0.88;0.40;;;;;;;;;;5072380;28;20041;-48
2023/12/14 11:01:01;;;;;;;1.17;0.43;;;;;;;;;;5071365;28;20496;-47
2023/12/14 11:03:26;;;;;;;1.42;0.43;;;;;;;;;;5073222;28;20044;-47
2023/12/14 11:05:52;;;;;;;0.90;0.63;;;;;;;;;;5074779;28;20020;-46
2023/12/14 11:08:18;;;;;;;1.58;0.40;;;;;;;;;;5070215;28;20032;-48
2023/12/14 11:11:10;;;;;;;1.35;0.25;;;;;;;;;;5069376;28;20020;-45
2023/12/14 11:13:36;;;;;;;0.63;0.35;;;;;;;;;;5075153;28;20049;-48
2023/12/14 11:16:01;;;;;;;0.50;0.35;;;;;;;;;;5073684;28;20030;-47
2023/12/14 11:18:27;;;;;;;1.38;0.60;;;;;;;;;;5071947;28;20535;-48
2023/12/14 11:20:58;;;;;;;2.67;0.20;;;;;;;;;;5074705;28;20080;-46
2023/12/14 11:23:24;;;;;;;0.30;0.22;;;;;;;;;;5074860;28;20584;-46
2023/12/14 11:25:52;;;;;;;1.02;0.57;;;;;;;;;;5071704;28;20021;-50
2023/12/14 11:28:19;;;;;;;1.10;0.80;;;;;;;;;;5073598;28;20047;-47
2023/12/14 11:30:45;;;;;;;2.47;0.28;;;;;;;;;;5081145;28;20070;-49
2023/12/14 11:33:12;;;;;;;2.15;0.95;;;;;;;;;;5075821;28;20461;-49
2023/12/14 11:35:37;;;;;;;1.40;0.25;;;;;;;;;;5074883;28;20073;-46
2023/12/14 11:38:10;;;;;;;2.88;0.43;;;;;;;;;;5074196;28;20041;-47
2023/12/14 11:40:35;;;;;;;0.50;0.45;;;;;;;;;;5074010;28;20039;-47
2023/12/14 11:43:07;;;;;;;0.40;0.10;;;;;;;;;;5074124;28;20040;-48
2023/12/14 11:45:33;;;;;;;0.93;0.15;;;;;;;;;;5061685;28;20039;-46
2023/12/14 11:47:59;;;;;;;0.30;0.30;;;;;;;;;;5071323;28;20799;-49
2023/12/14 11:50:27;;;;;;;0.40;0.10;;;;;;;;;;5074838;28;20024;-51
2023/12/14 11:52:53;;;;;;;0.22;0.22;;;;;;;;;;5074632;28;20075;-49
2023/12/14 11:55:20;;;;;;;0.90;0.43;;;;;;;;;;5074101;28;20566;-46
2023/12/14 11:57:46;;;;;;;0.75;0.75;;;;;;;;;;5071102;28;20435;-51
2023/12/14 12:00:12;;;;;;;0.73;0.47;;;;;;;;;;5073729;28;20124;-48
2023/12/14 12:02:40;;;;;;;1.42;0.20;;;;;;;;;;5073076;28;20017;-48
2023/12/14 12:05:06;;;;;;;0.38;0.38;;;;;;;;;;5077381;28;20477;-48
2023/12/14 12:07:31;;;;;;;0.25;0.25;;;;;;;;;;5075700;28;20498;-48
2023/12/14 12:09:58;;;;;;;0.30;0.10;;;;;;;;;;5074745;28;20032;-49
2023/12/14 12:12:24;;;;;;;0.25;0.22;;;;;;;;;;5067428;28;20028;-48
2023/12/14 12:14:52;;;;;;;0.22;0.00;;;;;;;;;;5074138;28;20043;-48
2023/12/14 12:17:19;;;;;;;0.88;0.13;;;;;;;;;;5075854;28;20028;-50
2023/12/14 12:19:45;;;;;;;1.00;0.13;;;;;;;;;;5073986;28;20055;-47
2023/12/14 12:22:10;;;;;;;0.65;0.22;;;;;;;;;;5076494;28;20390;-46
2023/12/14 12:24:36;;;;;;;1.85;0.45;;;;;;;;;;5075505;28;20029;-51
2023/12/14 12:27:01;;;;;;;1.33;0.20;;;;;;;;;;5077055;28;20056;-49
2023/12/14 12:29:27;;;;;;;1.98;0.50;;;;;;;;;;5074355;28;20085;-45
2023/12/14 12:31:52;;;;;;;0.40;0.20;;;;;;;;;;5075314;28;20028;-45
2023/12/14 12:34:18;;;;;;;0.63;0.00;;;;;;;;;;5080556;28;20123;-46
2023/12/14 12:36:43;;;;;;;0.25;0.10;;;;;;;;;;5075514;28;20483;-47
2023/12/14 12:39:09;;;;;;;0.22;0.00;;;;;;;;;;5074303;28;20048;-50
2023/12/14 12:41:37;;;;;;;0.88;0.10;;;;;;;;;;5074406;28;20511;-46
2023/12/14 12:44:05;;;;;;;0.45;0.32;;;;;;;;;;5075467;28;20490;-48
2023/12/14 12:46:37;;;;;;;0.47;0.47;;;;;;;;;;5078552;28;20036;-48
2023/12/14 12:49:04;;;;;;;0.32;0.32;;;;;;;;;;5074018;28;20033;-46
2023/12/14 12:51:30;;;;;;;0.55;0.40;;;;;;;;;;5080537;28;20028;-47
2023/12/14 12:53:57;;;;;;;0.38;0.20;;;;;;;;;;5083815;28;20064;-47
2023/12/14 12:56:24;;;;;;;0.82;0.38;;;;;;;;;;5084880;28;20059;-50
2023/12/14 12:58:51;;;;;;;5.70;0.77;;;;;;;;;;5075282;28;20413;-49
2023/12/14 13:01:17;;;;;;;1.08;0.57;;;;;;;;;;5075313;28;20394;-48
2023/12/14 13:03:42;;;;;;;2.03;0.30;;;;;;;;;;5071944;28;20041;-47
2023/12/14 13:06:08;;;;;;;0.98;0.35;;;;;;;;;;5074871;28;20035;-48
2023/12/14 13:08:33;;;;;;;0.70;0.15;;;;;;;;;;5074263;28;20036;-48
2023/12/14 13:10:59;;;;;;;0.95;0.20;;;;;;;;;;5089317;28;20032;-48
2023/12/14 13:13:25;;;;;;;0.60;0.55;;;;;;;;;;5071859;28;20044;-49
2023/12/14 13:15:50;;;;;;;0.47;0.10;;;;;;;;;;5066131;28;20039;-50
2023/12/14 13:18:16;;;;;;;0.32;0.10;;;;;;;;;;5072004;28;20045;-46
2023/12/14 13:20:42;;;;;;;0.73;0.10;;;;;;;;;;5075751;28;20040;-48
2023/12/14 13:23:08;;;;;;;1.85;0.25;;;;;;;;;;5073469;28;20033;-46
2023/12/14 13:25:33;;;;;;;1.08;0.40;;;;;;;;;;5077371;28;20055;-49
2023/12/14 13:27:59;;;;;;;0.90;0.10;;;;;;;;;;5077611;28;20057;-46
2023/12/14 13:30:25;;;;;;;0.35;0.25;;;;;;;;;;5081972;28;20028;-48
2023/12/14 13:32:50;;;;;;;0.80;0.22;;;;;;;;;;5063396;28;20389;-48
2023/12/14 13:35:16;;;;;;;0.88;0.20;;;;;;;;;;5069125;28;20039;-48
2023/12/14 13:37:41;;;;;;;0.20;0.10;;;;;;;;;;5070342;28;20492;-46
2023/12/14 13:40:09;;;;;;;0.40;0.40;;;;;;;;;;5073313;28;20067;-47
2023/12/14 13:42:37;;;;;;;0.70;0.22;;;;;;;;;;5074057;28;20024;-48
2023/12/14 13:45:02;;;;;;;4.03;0.35;;;;;;;;;;5074157;28;20037;-47
2023/12/14 13:47:28;;;;;;;0.50;0.13;;;;;;;;;;5073038;28;20163;-49
2023/12/14 13:49:53;;;;;;;0.47;0.47;;;;;;;;;;5071204;28;20739;-50
2023/12/14 13:52:18;;;;;;;1.08;0.73;;;;;;;;;;5073812;28;20090;-48
2023/12/14 13:54:44;;;;;;;0.30;0.10;;;;;;;;;;5074566;28;20044;-47
2023/12/14 13:57:09;;;;;;;0.45;0.45;;;;;;;;;;5074702;28;20393;-47
2023/12/14 13:59:34;;;;;;;0.28;0.20;;;;;;;;;;5074250;28;20465;-46
2023/12/14 14:02:00;;;;;;;0.25;0.22;;;;;;;;;;5076462;28;20432;-48
2023/12/14 14:04:25;;;;;;;0.45;0.25;;;;;;;;;;5074335;28;20037;-48
2023/12/14 14:06:50;;;;;;;0.10;0.10;;;;;;;;;;5073186;28;20024;-48
2023/12/14 14:09:16;;;;;;;0.88;0.10;;;;;;;;;;5073989;28;20032;-49
2023/12/14 14:11:45;;;;;;;0.25;0.10;;;;;;;;;;5082996;28;20078;-47
2023/12/14 14:14:11;;;;;;;0.38;0.15;;;;;;;;;;5073720;28;20056;-49
2023/12/14 14:16:37;;;;;;;0.25;0.25;;;;;;;;;;5072270;28;20021;-48
2023/12/14 14:19:02;;;;;;;0.20;0.10;;;;;;;;;;5073809;28;20047;-49
2023/12/14 14:21:28;;;;;;;0.45;0.30;;;;;;;;;;5074809;28;20059;-49
2023/12/14 14:23:53;;;;;;;0.15;0.10;;;;;;;;;;5076265;28;20040;-50
2023/12/14 14:26:18;;;;;;;0.75;0.75;;;;;;;;;;5075128;28;20036;-49
2023/12/14 14:28:44;;;;;;;1.23;0.30;;;;;;;;;;5074750;28;20045;-46
2023/12/14 14:31:09;;;;;;;0.70;0.47;;;;;;;;;;5072918;28;20028;-51
2023/12/14 14:33:35;;;;;;;0.50;0.25;;;;;;;;;;5076962;28;20048;-49
2023/12/14 14:36:04;;;;;;;0.80;0.25;;;;;;;;;;5072624;28;20028;-46
2023/12/14 14:38:30;;;;;;;0.45;0.32;;;;;;;;;;5066794;28;20052;-48
2023/12/14 14:40:56;;;;;;;0.60;0.45;;;;;;;;;;5074790;28;20086;-49
2023/12/14 14:43:22;;;;;;;0.60;0.20;;;;;;;;;;5074802;28;20079;-46